createdAt,value
2023-05-12T00:03:23.073Z,16.80
2023-05-12T00:08:22.942Z,17.07
2023-05-12T00:13:22.959Z,16.78
2023-05-12T00:18:22.862Z,16.34
2023-05-12T00:23:22.904Z,16.98
2023-05-12T00:28:22.681Z,16.58
2023-05-12T00:33:22.624Z,15.93
2023-05-12T00:38:22.550Z,16.33
2023-05-12T00:43:22.486Z,16.93
2023-05-12T00:48:22.421Z,16.22
2023-05-12T00:53:22.363Z,16.14
2023-05-12T00:58:22.299Z,16.09
2023-05-12T01:03:22.426Z,15.39
2023-05-12T01:08:22.154Z,15.08
2023-05-12T01:13:22.105Z,15.23
2023-05-12T01:18:22.118Z,15.26
2023-05-12T01:23:21.954Z,15.26
2023-05-12T01:28:21.874Z,15.49
2023-05-12T01:33:21.841Z,16.03
2023-05-12T01:38:21.744Z,15.79
2023-05-12T01:43:22.453Z,15.85
2023-05-12T01:48:21.601Z,16.11
2023-05-12T01:53:21.549Z,15.75
2023-05-12T01:58:21.462Z,15.26
2023-05-12T02:03:21.516Z,15.99
2023-05-12T02:08:21.343Z,15.51
2023-05-12T02:13:21.269Z,15.33
2023-05-12T02:18:21.230Z,15.03
2023-05-12T02:23:21.120Z,14.69
2023-05-12T02:28:21.057Z,14.32
2023-05-12T02:33:20.978Z,14.53
2023-05-12T02:38:20.925Z,14.90
2023-05-12T02:43:20.845Z,14.84
2023-05-12T02:48:20.792Z,14.39
2023-05-12T02:53:20.720Z,14.24
2023-05-12T02:58:20.651Z,14.46
2023-05-12T03:03:20.689Z,14.64
2023-05-12T03:08:20.531Z,15.02
2023-05-12T03:13:20.450Z,15.74
2023-05-12T03:18:20.450Z,15.08
2023-05-12T03:23:20.318Z,14.49
2023-05-12T03:28:20.282Z,14.60
2023-05-12T03:33:20.184Z,14.50
2023-05-12T03:38:20.133Z,14.72
2023-05-12T03:43:20.056Z,14.84
2023-05-12T03:48:20.060Z,15.02
2023-05-12T03:53:19.926Z,15.03
2023-05-12T03:58:19.876Z,14.84
2023-05-12T04:03:19.875Z,14.60
2023-05-12T04:08:19.740Z,14.50
2023-05-12T04:13:19.667Z,14.32
2023-05-12T04:18:19.668Z,14.19
2023-05-12T04:23:19.579Z,14.29
2023-05-12T04:28:19.528Z,14.39
2023-05-12T04:33:20.002Z,14.74
2023-05-12T04:38:19.333Z,14.94
2023-05-12T04:48:19.280Z,16.95
2023-05-12T04:53:19.135Z,16.99
2023-05-12T04:58:19.061Z,18.39
2023-05-12T05:03:19.042Z,21.06
2023-05-12T05:08:18.936Z,20.91
2023-05-12T05:13:18.893Z,22.29
2023-05-12T05:18:19.458Z,23.49
2023-05-12T05:23:19.034Z,22.82
2023-05-12T05:28:18.663Z,23.64
2023-05-12T05:33:18.584Z,23.67
2023-05-12T05:38:18.575Z,26.37
2023-05-12T05:43:18.533Z,26.55
2023-05-12T05:48:18.431Z,25.90
2023-05-12T05:53:19.035Z,26.64
2023-05-12T05:58:18.325Z,26.74
2023-05-12T06:03:18.324Z,28.69
2023-05-12T06:08:18.169Z,27.42
2023-05-12T06:13:18.120Z,25.99
2023-05-12T06:18:18.042Z,26.05
2023-05-12T06:23:17.998Z,24.77
2023-05-12T06:28:17.944Z,24.14
2023-05-12T06:33:17.839Z,26.74
2023-05-12T06:38:17.783Z,28.17
2023-05-12T06:43:17.818Z,29.11
2023-05-12T06:48:17.629Z,27.39
2023-05-12T06:53:17.566Z,27.01
2023-05-12T06:58:17.525Z,28.07
2023-05-12T07:03:17.606Z,28.50
2023-05-12T07:08:17.384Z,27.92
2023-05-12T07:13:17.339Z,28.19
2023-05-12T07:18:17.261Z,27.53
2023-05-12T07:23:17.189Z,26.67
2023-05-12T07:28:17.131Z,26.96
2023-05-12T07:33:17.080Z,26.21
2023-05-12T07:38:17.019Z,25.90
2023-05-12T07:43:16.943Z,26.36
2023-05-12T07:48:16.920Z,26.39
2023-05-12T07:53:16.823Z,27.02
2023-05-12T07:58:16.757Z,27.36
2023-05-12T08:03:16.785Z,26.94
2023-05-12T08:08:16.772Z,27.43
2023-05-12T08:13:16.581Z,26.15
2023-05-12T08:18:16.574Z,25.07
2023-05-12T08:23:16.432Z,24.94
2023-05-12T08:28:16.381Z,25.09
2023-05-12T08:33:16.309Z,24.24
2023-05-12T08:38:16.262Z,24.07
2023-05-12T08:43:16.184Z,23.70
2023-05-12T08:48:16.266Z,23.89
2023-05-12T08:53:16.079Z,23.89
2023-05-12T08:58:15.985Z,23.80
2023-05-12T09:03:15.919Z,24.13
2023-05-12T09:08:15.846Z,23.95
2023-05-12T09:13:15.806Z,24.24
2023-05-12T09:18:15.732Z,24.63
2023-05-12T09:23:15.649Z,24.80
2023-05-12T09:28:15.594Z,24.59
2023-05-12T09:33:15.543Z,24.64
2023-05-12T09:38:15.459Z,24.47
2023-05-12T09:43:15.795Z,24.24
2023-05-12T09:48:15.321Z,24.04
2023-05-12T09:53:15.250Z,24.73
2023-05-12T09:58:15.191Z,24.97
2023-05-12T10:03:15.144Z,25.00
2023-05-12T10:08:15.053Z,25.13
2023-05-12T10:13:14.974Z,25.10
2023-05-12T10:18:14.964Z,25.02
2023-05-12T10:23:14.856Z,24.88
2023-05-12T10:28:14.799Z,24.71
2023-05-12T10:33:14.745Z,25.44
2023-05-12T10:38:14.676Z,25.50
2023-05-12T10:43:14.593Z,24.54
2023-05-12T10:48:14.547Z,24.68
2023-05-12T10:53:14.464Z,25.02
2023-05-12T10:58:14.723Z,24.64
2023-05-12T11:03:15.771Z,24.29
2023-05-12T11:08:14.492Z,25.07
2023-05-12T11:13:14.195Z,24.39
2023-05-12T11:18:14.139Z,23.90
2023-05-12T11:23:14.110Z,23.38
2023-05-12T11:28:14.004Z,22.96
2023-05-12T11:33:13.969Z,22.65
2023-05-12T11:38:13.866Z,22.34
2023-05-12T11:43:13.798Z,22.17
2023-05-12T11:48:13.862Z,22.43
2023-05-12T11:53:13.676Z,22.27
2023-05-12T11:58:13.613Z,22.56
2023-05-12T12:03:13.702Z,22.67
2023-05-12T12:08:13.509Z,22.93
2023-05-12T12:13:13.412Z,22.96
2023-05-12T12:18:13.427Z,22.78
2023-05-12T12:23:13.272Z,22.52
2023-05-12T12:28:13.200Z,22.57
2023-05-12T12:33:13.259Z,22.59
2023-05-12T12:38:13.063Z,22.54
2023-05-12T12:43:13.009Z,22.62
2023-05-12T12:48:12.998Z,23.22
2023-05-12T12:53:12.859Z,23.72
2023-05-12T12:58:12.796Z,23.26
2023-05-12T13:03:12.770Z,23.12
2023-05-12T13:08:12.655Z,22.97
2023-05-12T13:13:12.583Z,22.89
2023-05-12T13:18:12.548Z,23.07
2023-05-12T13:23:12.453Z,22.71
2023-05-12T13:28:12.387Z,22.50
2023-05-12T13:33:12.337Z,22.28
2023-05-12T13:38:12.251Z,22.02
2023-05-12T13:43:12.194Z,22.31
2023-05-12T13:48:12.169Z,22.47
2023-05-12T13:53:12.051Z,22.69
2023-05-12T13:58:11.996Z,22.94
2023-05-12T14:03:11.960Z,22.83
2023-05-12T14:08:11.903Z,22.67
2023-05-12T14:13:11.780Z,22.44
2023-05-12T14:18:12.281Z,22.25
2023-05-12T14:23:11.673Z,21.45
2023-05-12T14:28:11.672Z,20.56
2023-05-12T14:33:11.583Z,20.05
2023-05-12T14:38:11.451Z,20.33
2023-05-12T14:43:11.382Z,20.58
2023-05-12T14:48:11.381Z,20.81
2023-05-12T14:53:11.277Z,21.09
2023-05-12T14:58:11.204Z,21.36
2023-05-12T15:03:11.258Z,21.59
2023-05-12T15:08:11.066Z,21.72
2023-05-12T15:13:11.002Z,21.83
2023-05-12T15:18:10.992Z,21.91
2023-05-12T15:23:10.854Z,21.91
2023-05-12T15:28:10.794Z,21.82
2023-05-12T15:33:10.786Z,21.71
2023-05-12T15:38:10.668Z,21.63
2023-05-12T15:43:10.585Z,21.56
2023-05-12T15:48:10.547Z,21.66
2023-05-12T15:53:10.470Z,21.81
2023-05-12T15:58:10.413Z,21.78
2023-05-12T16:03:10.413Z,21.67
2023-05-12T16:08:10.256Z,21.51
2023-05-12T16:13:10.185Z,21.38
2023-05-12T16:18:11.382Z,21.23
2023-05-12T16:23:10.054Z,21.02
2023-05-12T16:28:09.983Z,20.81
2023-05-12T16:33:10.008Z,20.61
2023-05-12T16:38:09.859Z,20.50
2023-05-12T16:43:09.788Z,20.35
2023-05-12T16:48:09.730Z,20.56
2023-05-12T16:53:09.652Z,20.87
2023-05-12T16:58:09.579Z,20.89
2023-05-12T17:03:09.633Z,20.84
2023-05-12T17:08:09.456Z,20.89
2023-05-12T17:13:09.385Z,20.68
2023-05-12T17:18:09.441Z,20.38
2023-05-12T17:23:09.251Z,20.33
2023-05-12T17:28:09.188Z,19.98
2023-05-12T17:33:09.171Z,19.86
2023-05-12T17:38:09.080Z,19.47
2023-05-12T17:43:09.273Z,19.21
2023-05-12T17:48:08.979Z,19.10
2023-05-12T17:53:09.139Z,18.55
2023-05-12T17:58:08.869Z,18.25
2023-05-12T18:03:08.874Z,18.68
2023-05-12T18:08:08.967Z,18.54
2023-05-12T18:13:08.700Z,18.17
2023-05-12T18:18:09.524Z,18.57
2023-05-12T18:23:08.455Z,18.57
2023-05-12T18:28:08.418Z,18.07
2023-05-12T18:33:08.432Z,17.64
2023-05-12T18:38:08.401Z,17.35
2023-05-12T18:43:08.208Z,17.25
2023-05-12T18:48:08.288Z,17.46
2023-05-12T18:53:08.208Z,17.47
2023-05-12T18:58:08.066Z,17.54
2023-05-12T19:03:07.979Z,17.82
2023-05-12T19:08:07.979Z,17.66
2023-05-12T19:13:08.676Z,17.35
2023-05-12T19:18:07.828Z,16.75
2023-05-12T19:23:08.496Z,16.62
2023-05-12T19:28:07.858Z,16.70
2023-05-12T19:33:07.818Z,16.80
2023-05-12T19:38:08.035Z,17.22
2023-05-12T19:43:09.173Z,17.71
2023-05-12T19:48:07.819Z,17.04
2023-05-12T19:53:07.408Z,17.03
2023-05-12T19:58:07.346Z,17.28
2023-05-12T20:03:07.328Z,17.18
2023-05-12T20:08:07.096Z,17.57
2023-05-12T20:13:08.205Z,18.12
2023-05-12T20:18:07.057Z,16.50
2023-05-12T20:23:07.897Z,15.60
2023-05-12T20:28:07.643Z,15.03
2023-05-12T20:33:07.181Z,14.50
2023-05-12T20:38:06.658Z,14.56
2023-05-12T20:43:06.579Z,14.81
2023-05-12T20:48:06.611Z,14.71
2023-05-12T20:53:06.449Z,14.81
2023-05-12T20:58:06.445Z,15.17
2023-05-12T21:03:06.390Z,14.91
2023-05-12T21:08:06.258Z,14.56
2023-05-12T21:13:06.207Z,14.95
2023-05-12T21:18:06.181Z,14.31
2023-05-12T21:23:06.196Z,13.92
2023-05-12T21:28:06.009Z,13.52
2023-05-12T21:33:05.999Z,13.30
2023-05-12T21:38:05.866Z,13.88
2023-05-12T21:43:05.786Z,13.80
2023-05-12T21:48:05.776Z,13.29
2023-05-12T21:53:05.657Z,13.89
2023-05-12T21:58:05.602Z,13.96
2023-05-12T22:03:05.596Z,14.81
2023-05-12T22:08:05.457Z,14.84
2023-05-12T22:13:06.331Z,14.13
2023-05-12T22:18:05.380Z,13.12
2023-05-12T22:23:05.265Z,12.84
2023-05-12T22:28:07.175Z,13.29
2023-05-12T22:33:05.145Z,12.96
2023-05-12T22:38:05.053Z,12.85
2023-05-12T22:43:04.995Z,12.79
2023-05-12T22:48:04.961Z,13.02
2023-05-12T22:53:04.856Z,12.29
2023-05-12T22:58:04.796Z,12.09
2023-05-12T23:03:04.751Z,12.38
2023-05-12T23:08:04.663Z,12.57
2023-05-12T23:13:04.588Z,11.99
2023-05-12T23:18:04.665Z,11.64
2023-05-12T23:23:04.467Z,11.68
2023-05-12T23:28:04.419Z,12.24
2023-05-12T23:33:04.427Z,12.09
2023-05-12T23:38:04.287Z,11.62
2023-05-12T23:43:04.188Z,11.75
2023-05-12T23:48:04.141Z,12.16
2023-05-12T23:53:04.102Z,12.92
2023-05-12T23:58:04.007Z,12.34
